Aeroporto :
LOGIN :

Iscrizione | Disclaimer

   EN    FR    IT 

 










Sommario :    VFR   VFR Marginale   IFR   IFR Intensivo   IFR Molto Intensivo
Visibilità : 
Base nubi : 
>= 8 km
>= 3000ft
5 / 8 km
1000 / 3000 ft
1500m / 5 km
500 / 1000 ft
800 / 1500m
200 / 500 ft
< 800m
< 200 ft
Simboli :   Temporali  Nebbia  Neve Forte  Precipitazioni Forti  Vento > 20 kt
SIGMETs :   Varie  Temporali  Ghiacco  Turbolenza  Onda orograficha  Ceneri Vulcaniche






- Altitudine del aeroporto : 230 ft


ETHB - Buckeburg Army

ULTIMO METAR :
  • 282210Z 34005KT 9999 BKN330 11/06 Q1031 BLU+FCST CANCEL

METARs OBSOLETI :
  • 282120Z 35003KT 9999 BKN330 12/07 Q1031 BLU+BLU+
  • 282020Z 02003KT 9999 FEW340 13/07 Q1030 BLU+BLU+
  • 281920Z 36007KT 9999 FEW036 15/06 Q1030 BLU+BLU+

TAF TAF ETHB
Valido dal 28 a 20 ore il 29 a 05 ore UTC


281900Z 2820/2905 34007KT 9999 NSW FEW050
TEMPO 2822/2905 VRB03KT 5000 BR SKC
PROB30 2900/2905 VRB03KT 3000 MIFG SKC



MetMap, La meteo Aeronautica in un colpo d'occhio ! - Copyright ORBIFLY Dicembre 2007 - Disclaimer

ORBIFLY MET'MAP TEAM :

Programmazione e sviluppo : Alexandra Zaïnal
Concezione : Baudouin d'Aumeries
Aiuto per la programmazione : Marc-Olivier Méhu
Supporto tecnico e logistico : Manuel Goepfert
Aiuto per la traduzione : Arnaldo La Scala

Contatto : metmap@orbifly.com




FONTI E CREDITI :

   NOAA